createdAt,value
2023-05-29T00:01:30.089Z,13.98
2023-05-29T00:03:56.798Z,13.98
2023-05-29T00:06:24.989Z,13.97
2023-05-29T00:08:51.519Z,13.85
2023-05-29T00:11:18.115Z,13.89
2023-05-29T00:13:44.805Z,13.90
2023-05-29T00:16:11.418Z,13.86
2023-05-29T00:18:46.757Z,13.90
2023-05-29T00:21:15.032Z,13.76
2023-05-29T00:23:41.743Z,13.71
2023-05-29T00:26:08.852Z,13.63
2023-05-29T00:28:37.427Z,13.57
2023-05-29T00:31:04.316Z,13.63
2023-05-29T00:33:31.038Z,13.65
2023-05-29T00:35:57.542Z,13.66
2023-05-29T00:38:24.033Z,13.67
2023-05-29T00:40:50.836Z,13.72
2023-05-29T00:43:17.412Z,13.74
2023-05-29T00:45:43.897Z,13.79
2023-05-29T00:48:16.626Z,13.73
2023-05-29T00:50:45.630Z,13.54
2023-05-29T00:53:12.655Z,13.55
2023-05-29T00:55:50.406Z,13.65
2023-05-29T00:58:17.237Z,13.59
2023-05-29T01:00:44.150Z,13.56
2023-05-29T01:03:15.931Z,13.44
2023-05-29T01:05:42.692Z,13.21
2023-05-29T01:08:10.647Z,13.18
2023-05-29T01:10:37.807Z,13.20
2023-05-29T01:13:12.608Z,13.04
2023-05-29T01:15:44.984Z,13.14
2023-05-29T01:18:23.772Z,13.05
2023-05-29T01:21:14.238Z,12.89
2023-05-29T01:24:12.524Z,12.62
2023-05-29T01:26:42.525Z,12.65
2023-05-29T01:29:19.231Z,12.43
2023-05-29T01:31:47.315Z,12.48
2023-05-29T01:34:14.096Z,12.42
2023-05-29T01:36:40.689Z,12.43
2023-05-29T01:39:08.854Z,12.34
2023-05-29T01:41:36.730Z,12.09
2023-05-29T01:44:10.881Z,11.99
2023-05-29T01:46:39.299Z,12.10
2023-05-29T01:49:12.308Z,12.13
2023-05-29T01:51:42.339Z,12.13
2023-05-29T01:54:11.904Z,12.25
2023-05-29T01:56:41.133Z,12.06
2023-05-29T01:59:09.182Z,12.03
2023-05-29T02:01:35.919Z,11.90
2023-05-29T02:04:02.554Z,11.83
2023-05-29T02:06:29.064Z,11.85
2023-05-29T02:08:55.752Z,11.72
2023-05-29T02:11:22.800Z,11.73
2023-05-29T02:13:49.551Z,11.68
2023-05-29T02:16:16.435Z,11.60
2023-05-29T02:18:44.513Z,11.61
2023-05-29T02:21:11.104Z,11.62
2023-05-29T02:23:39.593Z,11.63
2023-05-29T02:26:06.390Z,11.55
2023-05-29T02:28:35.916Z,11.38
2023-05-29T02:31:04.009Z,11.31
2023-05-29T02:33:30.884Z,11.23
2023-05-29T02:36:00.395Z,11.34
2023-05-29T02:38:26.975Z,11.41
2023-05-29T02:40:53.897Z,11.35
2023-05-29T02:43:23.624Z,11.37
2023-05-29T02:45:50.325Z,11.42
2023-05-29T02:48:16.914Z,11.42
2023-05-29T02:50:43.387Z,11.38
2023-05-29T02:53:09.926Z,11.38
2023-05-29T02:55:36.946Z,11.35
2023-05-29T02:58:03.837Z,11.26
2023-05-29T03:00:30.922Z,11.10
2023-05-29T03:02:57.765Z,11.02
2023-05-29T03:05:24.414Z,11.06
2023-05-29T03:07:51.042Z,11.16
2023-05-29T03:10:18.195Z,11.28
2023-05-29T03:12:53.537Z,11.37
2023-05-29T03:15:22.769Z,11.48
2023-05-29T03:17:49.299Z,11.58
2023-05-29T03:20:16.749Z,11.67
2023-05-29T03:22:43.464Z,11.70
2023-05-29T03:25:10.369Z,11.78
2023-05-29T03:27:36.947Z,11.87
2023-05-29T03:30:11.009Z,11.93
2023-05-29T03:32:37.553Z,12.00
2023-05-29T03:35:05.131Z,12.05
2023-05-29T03:37:31.646Z,12.03
2023-05-29T03:39:58.132Z,12.07
2023-05-29T03:42:24.646Z,12.09
2023-05-29T03:44:51.197Z,12.12
2023-05-29T03:47:17.809Z,12.15
2023-05-29T03:49:47.348Z,12.09
2023-05-29T03:52:13.901Z,12.10
2023-05-29T03:54:40.432Z,11.94
2023-05-29T03:57:10.007Z,11.98
2023-05-29T03:59:36.561Z,11.97
2023-05-29T04:02:03.705Z,12.05
2023-05-29T04:04:30.483Z,12.05
2023-05-29T04:06:57.724Z,12.05
2023-05-29T04:09:24.257Z,12.13
2023-05-29T04:11:52.860Z,12.08
2023-05-29T04:14:20.614Z,12.10
2023-05-29T04:16:47.364Z,11.99
2023-05-29T04:19:24.217Z,11.92
2023-05-29T04:22:05.931Z,12.02
2023-05-29T04:24:33.972Z,11.94
2023-05-29T04:27:01.677Z,11.89
2023-05-29T04:29:35.685Z,11.79
2023-05-29T04:32:04.243Z,11.87
2023-05-29T04:34:44.366Z,11.94
2023-05-29T04:37:10.902Z,12.01
2023-05-29T04:39:37.438Z,12.07
2023-05-29T04:42:04.336Z,12.08
2023-05-29T04:44:30.897Z,12.11
2023-05-29T04:47:03.972Z,12.05
2023-05-29T04:49:30.677Z,11.98
2023-05-29T04:51:57.190Z,11.89
2023-05-29T04:54:24.296Z,11.81
2023-05-29T04:56:50.816Z,11.88
2023-05-29T04:59:17.303Z,12.06
2023-05-29T05:01:44.989Z,12.10
2023-05-29T05:04:11.748Z,12.24
2023-05-29T05:06:38.701Z,12.31
2023-05-29T05:09:10.983Z,12.32
2023-05-29T05:11:37.618Z,12.33
2023-05-29T05:14:04.238Z,12.25
2023-05-29T05:16:30.944Z,12.39
2023-05-29T05:18:57.537Z,12.46
2023-05-29T05:21:24.111Z,12.59
2023-05-29T05:23:57.927Z,12.73
2023-05-29T05:26:27.659Z,12.79
2023-05-29T05:28:54.286Z,12.84
2023-05-29T05:31:21.167Z,12.91
2023-05-29T05:33:47.701Z,13.01
2023-05-29T05:36:18.198Z,13.14
2023-05-29T05:38:44.862Z,13.18
2023-05-29T05:41:11.413Z,13.06
2023-05-29T05:43:41.116Z,13.13
2023-05-29T05:46:07.809Z,13.17
2023-05-29T05:48:34.515Z,13.33
2023-05-29T05:51:01.038Z,13.55
2023-05-29T05:53:27.601Z,13.70
2023-05-29T05:55:54.715Z,13.92
2023-05-29T05:58:21.433Z,13.93
2023-05-29T06:00:48.395Z,13.75
2023-05-29T06:03:15.306Z,13.76
2023-05-29T06:05:42.667Z,14.08
2023-05-29T06:08:09.754Z,13.89
2023-05-29T06:10:37.101Z,13.85
2023-05-29T06:13:07.783Z,13.87
2023-05-29T06:15:34.568Z,14.09
2023-05-29T06:18:01.589Z,14.20
2023-05-29T06:20:34.546Z,14.24
2023-05-29T06:23:01.426Z,14.27
2023-05-29T06:25:33.965Z,14.37
2023-05-29T06:28:03.974Z,14.50
2023-05-29T06:30:30.559Z,14.52
2023-05-29T06:33:08.482Z,14.61
2023-05-29T06:35:35.040Z,14.95
2023-05-29T06:38:01.651Z,15.08
2023-05-29T06:40:28.122Z,15.24
2023-05-29T06:43:02.182Z,15.33
2023-05-29T06:45:28.728Z,15.70
2023-05-29T06:47:56.360Z,15.77
2023-05-29T06:50:23.679Z,15.86
2023-05-29T06:52:50.440Z,15.92
2023-05-29T06:55:17.641Z,15.97
2023-05-29T06:57:47.105Z,16.20
2023-05-29T07:00:14.426Z,16.14
2023-05-29T07:02:41.159Z,16.27
2023-05-29T07:05:08.377Z,16.39
2023-05-29T07:07:34.869Z,16.91
2023-05-29T07:10:03.805Z,16.85
2023-05-29T07:12:30.998Z,16.92
2023-05-29T07:14:58.507Z,16.68
2023-05-29T07:17:25.152Z,16.73
2023-05-29T07:19:51.785Z,16.64
2023-05-29T07:22:18.383Z,16.70
2023-05-29T07:24:45.035Z,17.00
2023-05-29T07:27:11.609Z,17.15
2023-05-29T07:29:38.140Z,17.30
2023-05-29T07:32:05.068Z,17.23
2023-05-29T07:34:31.671Z,17.21
2023-05-29T07:37:07.532Z,17.26
2023-05-29T07:39:36.005Z,17.32
2023-05-29T07:42:20.650Z,17.23
2023-05-29T07:44:50.144Z,17.31
2023-05-29T07:47:17.500Z,17.38
2023-05-29T07:49:46.594Z,17.43
2023-05-29T07:52:13.073Z,17.59
2023-05-29T07:54:44.856Z,17.81
2023-05-29T07:57:11.534Z,18.16
2023-05-29T07:59:42.223Z,18.65
2023-05-29T08:02:09.752Z,18.29
2023-05-29T08:04:36.868Z,18.18
2023-05-29T08:07:07.024Z,18.57
2023-05-29T08:09:36.731Z,18.40
2023-05-29T08:12:03.630Z,18.47
2023-05-29T08:14:30.205Z,18.75
2023-05-29T08:16:56.803Z,18.70
2023-05-29T08:19:24.469Z,18.97
2023-05-29T08:21:51.004Z,18.95
2023-05-29T08:24:17.860Z,18.96
2023-05-29T08:26:44.769Z,18.93
2023-05-29T08:29:11.992Z,18.98
2023-05-29T08:31:38.583Z,19.06
2023-05-29T08:34:05.160Z,19.30
2023-05-29T08:36:32.548Z,19.73
2023-05-29T08:38:59.375Z,19.55
2023-05-29T08:41:50.674Z,19.70
2023-05-29T08:44:25.948Z,19.54
2023-05-29T08:46:57.281Z,19.59
2023-05-29T08:49:24.630Z,19.59
2023-05-29T09:00:09.803Z,20.11
2023-05-29T09:02:38.071Z,20.45
2023-05-29T09:05:05.067Z,20.34
2023-05-29T09:07:32.042Z,20.37
2023-05-29T09:09:59.740Z,20.55
2023-05-29T09:12:26.724Z,20.34
2023-05-29T09:14:53.334Z,20.23
2023-05-29T09:17:20.579Z,20.44
2023-05-29T09:19:49.186Z,20.61
2023-05-29T09:22:16.734Z,20.81
2023-05-29T09:24:48.941Z,20.81
2023-05-29T09:27:19.409Z,20.78
2023-05-29T09:29:47.667Z,21.13
2023-05-29T09:32:20.239Z,20.99
2023-05-29T09:34:54.285Z,20.90
2023-05-29T09:37:23.477Z,21.15
2023-05-29T09:39:52.747Z,21.25
2023-05-29T09:42:19.335Z,21.15
2023-05-29T09:44:52.403Z,21.34
2023-05-29T09:47:21.244Z,21.36
2023-05-29T09:49:48.334Z,21.72
2023-05-29T09:52:16.730Z,21.78
2023-05-29T09:54:47.334Z,21.92
2023-05-29T09:57:15.868Z,22.10
2023-05-29T09:59:46.068Z,22.01
2023-05-29T10:02:14.901Z,21.96
2023-05-29T10:04:41.580Z,22.24
2023-05-29T10:07:28.769Z,22.26
2023-05-29T10:10:06.161Z,22.08
2023-05-29T10:12:40.526Z,21.87
2023-05-29T10:15:15.980Z,21.97
2023-05-29T10:17:48.684Z,22.40
2023-05-29T10:20:18.111Z,22.25
2023-05-29T10:22:51.235Z,22.54
2023-05-29T10:25:22.464Z,22.31
2023-05-29T10:27:50.432Z,22.35
2023-05-29T10:30:42.531Z,22.21
2023-05-29T10:33:41.875Z,22.55
2023-05-29T10:36:15.625Z,22.64
2023-05-29T10:38:46.470Z,22.71
2023-05-29T10:41:28.299Z,22.59
2023-05-29T10:43:56.732Z,22.71
2023-05-29T10:46:54.605Z,23.04
2023-05-29T10:49:22.604Z,23.22
2023-05-29T10:51:50.294Z,22.75
2023-05-29T10:54:19.858Z,22.81
2023-05-29T10:56:56.678Z,22.89
2023-05-29T10:59:27.738Z,23.03
2023-05-29T11:01:56.345Z,23.31
2023-05-29T11:04:22.951Z,23.25
2023-05-29T11:06:49.557Z,23.16
2023-05-29T11:09:40.903Z,23.13
2023-05-29T11:12:34.748Z,23.28
2023-05-29T11:15:08.720Z,23.22
2023-05-29T11:17:37.960Z,23.27
2023-05-29T11:20:08.994Z,23.13
2023-05-29T11:22:41.445Z,22.94
2023-05-29T11:25:08.486Z,23.47
2023-05-29T11:27:36.705Z,23.34
2023-05-29T11:30:06.701Z,23.33
2023-05-29T11:32:37.783Z,23.77
2023-05-29T11:35:11.565Z,23.30
2023-05-29T11:37:49.494Z,23.04
2023-05-29T11:40:16.343Z,23.43
2023-05-29T11:42:45.693Z,23.63
2023-05-29T11:45:16.534Z,23.44
2023-05-29T11:47:57.524Z,22.85
2023-05-29T11:50:27.790Z,23.15
2023-05-29T11:52:55.126Z,24.16
2023-05-29T11:55:24.128Z,23.61
2023-05-29T11:57:56.848Z,23.66
2023-05-29T12:00:23.520Z,23.76
2023-05-29T12:02:58.898Z,24.06
2023-05-29T12:05:25.618Z,23.76
2023-05-29T12:08:02.995Z,23.47
2023-05-29T12:10:32.551Z,23.22
2023-05-29T12:13:02.118Z,23.39
2023-05-29T12:15:28.957Z,23.49
2023-05-29T12:18:01.023Z,23.27
2023-05-29T12:20:27.955Z,23.42
2023-05-29T12:23:09.557Z,23.33
2023-05-29T12:25:54.544Z,23.70
2023-05-29T12:28:22.680Z,23.68
2023-05-29T12:30:53.308Z,23.62
2023-05-29T12:33:31.054Z,23.69
2023-05-29T12:36:13.047Z,24.09
2023-05-29T12:38:51.930Z,23.90
2023-05-29T12:41:35.255Z,23.73
2023-05-29T12:44:04.772Z,23.82
2023-05-29T12:46:47.882Z,23.63
2023-05-29T12:49:24.607Z,23.75
2023-05-29T12:51:53.341Z,23.82
2023-05-29T12:54:19.887Z,23.75
2023-05-29T12:56:47.442Z,23.85
2023-05-29T12:59:14.119Z,23.88
2023-05-29T13:01:41.612Z,23.74
2023-05-29T13:04:09.048Z,23.74
2023-05-29T13:06:39.699Z,23.90
2023-05-29T13:09:15.195Z,24.42
2023-05-29T13:11:41.963Z,24.13
2023-05-29T13:14:08.529Z,24.61
2023-05-29T13:16:36.518Z,24.44
2023-05-29T13:19:03.280Z,24.92
2023-05-29T13:21:29.820Z,24.79
2023-05-29T13:23:56.423Z,24.23
2023-05-29T13:26:23.134Z,24.01
2023-05-29T13:28:49.975Z,25.04
2023-05-29T13:31:16.535Z,25.06
2023-05-29T13:33:43.016Z,24.54
2023-05-29T13:36:09.672Z,24.84
2023-05-29T13:38:36.305Z,24.26
2023-05-29T13:41:02.963Z,24.24
2023-05-29T13:43:42.329Z,23.90
2023-05-29T13:46:11.443Z,23.85
2023-05-29T13:48:38.020Z,24.01
2023-05-29T13:51:04.512Z,23.75
2023-05-29T13:53:31.070Z,23.44
2023-05-29T13:55:57.911Z,23.28
2023-05-29T13:58:24.639Z,23.18
2023-05-29T14:00:51.130Z,23.14
2023-05-29T14:03:18.755Z,23.33
2023-05-29T14:05:45.401Z,23.51
2023-05-29T14:08:11.880Z,23.23
2023-05-29T14:10:38.429Z,23.39
2023-05-29T14:13:04.951Z,23.34
2023-05-29T14:15:41.156Z,23.47
2023-05-29T14:18:13.379Z,23.35
2023-05-29T14:20:42.909Z,23.30
2023-05-29T14:23:14.711Z,23.12
2023-05-29T14:25:41.191Z,23.12
2023-05-29T14:28:07.744Z,23.10
2023-05-29T14:30:34.522Z,23.25
2023-05-29T14:33:01.297Z,23.31
2023-05-29T14:35:27.843Z,23.06
2023-05-29T14:37:57.585Z,22.76
2023-05-29T14:40:24.740Z,23.14
2023-05-29T14:42:51.298Z,23.66
2023-05-29T14:45:18.551Z,24.01
2023-05-29T14:47:52.480Z,23.49
2023-05-29T14:50:24.294Z,23.33
2023-05-29T14:52:52.806Z,23.20
2023-05-29T14:55:19.427Z,23.46
2023-05-29T14:57:45.996Z,23.23
2023-05-29T15:00:13.158Z,23.00
2023-05-29T15:02:40.846Z,22.95
2023-05-29T15:05:08.181Z,22.85
2023-05-29T15:07:35.530Z,23.38
2023-05-29T15:10:02.394Z,22.94
2023-05-29T15:12:32.570Z,23.15
2023-05-29T15:14:59.114Z,23.01
2023-05-29T15:17:25.745Z,23.05
2023-05-29T15:19:52.312Z,23.13
2023-05-29T15:22:18.857Z,22.44
2023-05-29T15:24:45.345Z,22.36
2023-05-29T15:27:11.947Z,22.87
2023-05-29T15:29:42.625Z,22.89
2023-05-29T15:32:09.648Z,23.04
2023-05-29T15:34:37.471Z,22.70
2023-05-29T15:37:04.276Z,22.21
2023-05-29T15:39:30.756Z,23.33
2023-05-29T15:41:57.254Z,23.07
2023-05-29T15:44:23.793Z,22.54
2023-05-29T15:46:50.670Z,22.54
2023-05-29T15:49:20.032Z,22.17
2023-05-29T15:51:46.539Z,22.27
2023-05-29T15:54:13.022Z,22.49
2023-05-29T15:56:39.618Z,22.32
2023-05-29T15:59:06.436Z,22.30
2023-05-29T16:01:33.053Z,22.42
2023-05-29T16:03:59.686Z,22.18
2023-05-29T16:06:26.240Z,22.08
2023-05-29T16:08:52.765Z,22.52
2023-05-29T16:11:23.941Z,22.69
2023-05-29T16:13:50.499Z,22.56
2023-05-29T16:16:19.745Z,22.32
2023-05-29T16:18:46.314Z,22.66
2023-05-29T16:21:13.178Z,22.52
2023-05-29T16:23:39.767Z,22.53
2023-05-29T16:26:06.475Z,22.22
2023-05-29T16:28:39.498Z,22.14
2023-05-29T16:31:06.721Z,22.14
2023-05-29T16:33:33.405Z,22.14
2023-05-29T16:36:01.302Z,22.15
2023-05-29T16:38:27.858Z,22.33
2023-05-29T16:40:54.336Z,22.24
2023-05-29T16:43:21.013Z,21.78
2023-05-29T16:45:51.382Z,21.73
2023-05-29T16:48:17.963Z,21.72
2023-05-29T16:50:46.900Z,21.72
2023-05-29T16:53:13.648Z,21.46
2023-05-29T16:55:40.132Z,21.48
2023-05-29T16:58:06.634Z,21.25
2023-05-29T17:00:33.550Z,21.41
2023-05-29T17:03:00.173Z,21.59
2023-05-29T17:05:26.757Z,22.22
2023-05-29T17:07:53.301Z,22.34
2023-05-29T17:10:19.958Z,21.62
2023-05-29T17:12:47.028Z,21.80
2023-05-29T17:15:19.789Z,21.28
2023-05-29T17:17:54.389Z,21.59
2023-05-29T17:20:36.638Z,21.33
2023-05-29T17:23:08.348Z,21.13
2023-05-29T17:25:34.860Z,22.51
2023-05-29T17:28:01.685Z,21.71
2023-05-29T17:30:28.388Z,21.66
2023-05-29T17:32:55.145Z,21.90
2023-05-29T17:35:21.732Z,21.29
2023-05-29T17:37:50.583Z,21.59
2023-05-29T17:40:17.150Z,21.26
2023-05-29T17:42:43.630Z,21.60
2023-05-29T17:45:10.837Z,21.31
2023-05-29T17:47:37.584Z,21.25
2023-05-29T17:50:04.538Z,21.13
2023-05-29T17:52:31.104Z,21.32
2023-05-29T17:54:57.674Z,20.97
2023-05-29T17:57:24.240Z,21.40
2023-05-29T17:59:50.852Z,21.01
2023-05-29T18:02:17.408Z,20.95
2023-05-29T18:04:44.913Z,20.91
2023-05-29T18:07:13.081Z,20.63
2023-05-29T18:09:42.177Z,20.66
2023-05-29T18:12:08.885Z,20.45
2023-05-29T18:14:35.517Z,20.19
2023-05-29T18:17:02.110Z,19.85
2023-05-29T18:19:28.921Z,20.37
2023-05-29T18:22:07.357Z,20.08
2023-05-29T18:24:37.353Z,19.79
2023-05-29T18:27:04.177Z,19.62
2023-05-29T18:29:33.050Z,19.21
2023-05-29T18:32:00.776Z,19.07
2023-05-29T18:34:27.358Z,18.98
2023-05-29T18:36:56.560Z,19.22
2023-05-29T18:39:31.268Z,19.51
2023-05-29T18:41:57.859Z,19.20
2023-05-29T18:44:24.418Z,19.10
2023-05-29T18:46:51.992Z,19.42
2023-05-29T18:49:18.624Z,19.20
2023-05-29T18:51:45.129Z,18.93
2023-05-29T18:54:11.746Z,18.95
2023-05-29T18:56:38.327Z,18.96
2023-05-29T18:59:04.917Z,18.75
2023-05-29T19:01:32.910Z,18.73
2023-05-29T19:04:01.366Z,18.74
2023-05-29T19:06:28.678Z,18.69
2023-05-29T19:08:55.190Z,18.53
2023-05-29T19:11:22.701Z,18.43
2023-05-29T19:13:49.250Z,18.38
2023-05-29T19:16:16.146Z,18.27
2023-05-29T19:18:42.845Z,18.15
2023-05-29T19:21:09.681Z,17.98
2023-05-29T19:23:39.218Z,17.83
2023-05-29T19:26:06.416Z,17.65
2023-05-29T19:28:32.978Z,17.87
2023-05-29T19:30:59.607Z,17.76
2023-05-29T19:33:26.907Z,17.72
2023-05-29T19:35:53.546Z,17.64
2023-05-29T19:38:23.941Z,17.54
2023-05-29T19:40:50.458Z,17.38
2023-05-29T19:43:17.242Z,17.24
2023-05-29T19:45:47.046Z,17.05
2023-05-29T19:48:18.652Z,17.04
2023-05-29T19:50:45.247Z,17.03
2023-05-29T19:53:15.706Z,16.79
2023-05-29T19:55:45.642Z,16.81
2023-05-29T19:58:12.140Z,16.69
2023-05-29T20:00:38.692Z,16.68
2023-05-29T20:03:05.435Z,16.55
2023-05-29T20:05:32.061Z,16.45
2023-05-29T20:07:59.619Z,16.33
2023-05-29T20:10:26.264Z,16.42
2023-05-29T20:12:52.820Z,16.46
2023-05-29T20:15:19.612Z,16.42
2023-05-29T20:17:46.777Z,16.33
2023-05-29T20:20:13.729Z,16.21
2023-05-29T20:22:40.428Z,16.13
2023-05-29T20:25:07.406Z,16.14
2023-05-29T20:27:33.974Z,16.18
2023-05-29T20:30:01.653Z,16.13
2023-05-29T20:32:30.790Z,16.10
2023-05-29T20:35:04.995Z,16.16
2023-05-29T20:37:33.978Z,16.05
2023-05-29T20:40:01.236Z,16.04
2023-05-29T20:42:27.799Z,16.02
2023-05-29T20:44:54.593Z,15.94
2023-05-29T20:47:22.316Z,15.93
2023-05-29T20:49:48.856Z,15.87
2023-05-29T20:52:15.378Z,15.78
2023-05-29T20:54:45.014Z,15.73
2023-05-29T20:57:23.581Z,15.60
2023-05-29T20:59:50.213Z,15.59
2023-05-29T21:02:17.017Z,15.51
2023-05-29T21:04:43.725Z,15.49
2023-05-29T21:07:11.721Z,15.46
2023-05-29T21:09:40.994Z,15.43
2023-05-29T21:12:08.187Z,15.41
2023-05-29T21:14:34.953Z,15.32
2023-05-29T21:17:01.931Z,15.13
2023-05-29T21:19:28.589Z,15.18
2023-05-29T21:21:55.195Z,15.19
2023-05-29T21:24:27.649Z,15.17
2023-05-29T21:26:54.183Z,15.06
2023-05-29T21:29:23.448Z,15.05
2023-05-29T21:31:50.100Z,14.91
2023-05-29T21:34:16.738Z,14.80
2023-05-29T21:36:45.573Z,14.71
2023-05-29T21:39:12.635Z,14.73
2023-05-29T21:41:39.258Z,14.75
2023-05-29T21:44:08.736Z,14.73
2023-05-29T21:46:35.650Z,14.74
2023-05-29T21:49:03.383Z,14.78
2023-05-29T21:51:34.030Z,14.83
2023-05-29T21:54:00.578Z,14.85
2023-05-29T21:56:27.490Z,14.75
2023-05-29T21:58:54.001Z,14.80
2023-05-29T22:01:21.559Z,14.72
2023-05-29T22:03:48.679Z,14.72
2023-05-29T22:06:15.253Z,14.72
2023-05-29T22:08:47.785Z,14.62
2023-05-29T22:11:15.846Z,14.54
2023-05-29T22:13:42.435Z,14.57
2023-05-29T22:16:09.107Z,14.46
2023-05-29T22:18:38.127Z,14.41
2023-05-29T22:21:10.058Z,14.41
2023-05-29T22:23:36.639Z,14.37
2023-05-29T22:26:03.185Z,14.31
2023-05-29T22:28:30.263Z,14.35
2023-05-29T22:30:58.042Z,14.29
2023-05-29T22:33:27.806Z,14.24
2023-05-29T22:35:55.207Z,14.22
2023-05-29T22:38:21.810Z,14.14
2023-05-29T22:40:48.578Z,14.10
2023-05-29T22:43:15.510Z,14.07
2023-05-29T22:45:49.027Z,13.99
2023-05-29T22:48:24.544Z,13.82
2023-05-29T22:50:51.083Z,13.76
2023-05-29T22:53:19.122Z,13.63
2023-05-29T22:55:48.642Z,13.63
2023-05-29T22:58:16.466Z,13.59
2023-05-29T23:00:45.535Z,13.55
2023-05-29T23:03:13.266Z,13.60
2023-05-29T23:05:43.480Z,13.55
2023-05-29T23:08:10.523Z,13.55
2023-05-29T23:10:37.384Z,13.58
2023-05-29T23:13:04.939Z,13.51
2023-05-29T23:15:32.535Z,13.55
2023-05-29T23:17:59.522Z,13.45
2023-05-29T23:20:31.731Z,13.40
2023-05-29T23:22:58.261Z,13.32
2023-05-29T23:25:27.175Z,13.24
2023-05-29T23:27:56.427Z,13.23
2023-05-29T23:30:23.892Z,13.16
2023-05-29T23:32:50.544Z,13.06
2023-05-29T23:35:22.487Z,13.06
2023-05-29T23:38:00.442Z,13.06
2023-05-29T23:40:26.973Z,13.02
2023-05-29T23:42:53.534Z,13.07
2023-05-29T23:45:20.125Z,13.10
2023-05-29T23:47:46.732Z,13.06
2023-05-29T23:50:13.510Z,13.06
2023-05-29T23:52:48.242Z,13.04
2023-05-29T23:55:15.680Z,13.01
2023-05-29T23:57:42.622Z,12.99
